sensor_id;sensor_type;location;lat;lon;timestamp;P1;durP1;ratioP1;P2;durP2;ratioP2
4428;SDS011;2227;47.810;8.810;2022-07-06T03:47:05;5.07;;;3.17;;
4428;SDS011;2227;47.810;8.810;2022-07-06T03:49:32;4.82;;;2.20;;
4428;SDS011;2227;47.810;8.810;2022-07-06T03:51:59;5.53;;;2.25;;
4428;SDS011;2227;47.810;8.810;2022-07-06T03:54:25;3.55;;;1.70;;
4428;SDS011;2227;47.810;8.810;2022-07-06T03:56:52;2.83;;;1.70;;
4428;SDS011;2227;47.810;8.810;2022-07-06T03:59:19;4.40;;;1.90;;
4428;SDS011;2227;47.810;8.810;2022-07-06T04:01:47;5.05;;;2.50;;
4428;SDS011;2227;47.810;8.810;2022-07-06T04:04:14;4.95;;;2.10;;
4428;SDS011;2227;47.810;8.810;2022-07-06T04:06:41;4.20;;;2.10;;
4428;SDS011;2227;47.810;8.810;2022-07-06T04:09:07;2.33;;;1.83;;
4428;SDS011;2227;47.810;8.810;2022-07-06T04:11:35;3.30;;;1.92;;
4428;SDS011;2227;47.810;8.810;2022-07-06T04:14:02;3.42;;;2.17;;
4428;SDS011;2227;47.810;8.810;2022-07-06T04:16:29;3.40;;;2.15;;
4428;SDS011;2227;47.810;8.810;2022-07-06T04:18:56;6.45;;;2.50;;
4428;SDS011;2227;47.810;8.810;2022-07-06T04:21:23;4.70;;;2.45;;
4428;SDS011;2227;47.810;8.810;2022-07-06T04:23:49;4.47;;;2.22;;
4428;SDS011;2227;47.810;8.810;2022-07-06T04:26:16;4.10;;;2.20;;
4428;SDS011;2227;47.810;8.810;2022-07-06T04:28:43;3.63;;;1.90;;
4428;SDS011;2227;47.810;8.810;2022-07-06T04:31:10;4.07;;;1.90;;
4428;SDS011;2227;47.810;8.810;2022-07-06T04:33:37;4.28;;;2.03;;
4428;SDS011;2227;47.810;8.810;2022-07-06T04:36:04;3.97;;;1.95;;
4428;SDS011;2227;47.810;8.810;2022-07-06T04:38:31;4.35;;;2.17;;
4428;SDS011;2227;47.810;8.810;2022-07-06T04:40:57;3.50;;;1.75;;
4428;SDS011;2227;47.810;8.810;2022-07-06T04:43:24;6.03;;;2.53;;
4428;SDS011;2227;47.810;8.810;2022-07-06T04:45:51;4.68;;;2.15;;
4428;SDS011;2227;47.810;8.810;2022-07-06T04:48:18;3.85;;;1.90;;
4428;SDS011;2227;47.810;8.810;2022-07-06T04:50:45;5.13;;;2.40;;
4428;SDS011;2227;47.810;8.810;2022-07-06T04:53:12;4.28;;;2.63;;
4428;SDS011;2227;47.810;8.810;2022-07-06T04:55:44;7.57;;;2.13;;
4428;SDS011;2227;47.810;8.810;2022-07-06T04:58:11;6.32;;;2.20;;
4428;SDS011;2227;47.810;8.810;2022-07-06T05:00:37;6.93;;;3.10;;
4428;SDS011;2227;47.810;8.810;2022-07-06T05:03:04;4.30;;;1.98;;
4428;SDS011;2227;47.810;8.810;2022-07-06T05:05:31;5.15;;;2.15;;
4428;SDS011;2227;47.810;8.810;2022-07-06T05:07:58;3.72;;;2.40;;
4428;SDS011;2227;47.810;8.810;2022-07-06T05:10:25;3.50;;;1.88;;
4428;SDS011;2227;47.810;8.810;2022-07-06T05:12:52;3.13;;;1.73;;
4428;SDS011;2227;47.810;8.810;2022-07-06T05:15:20;4.70;;;1.90;;
4428;SDS011;2227;47.810;8.810;2022-07-06T05:17:46;5.43;;;2.20;;
4428;SDS011;2227;47.810;8.810;2022-07-06T05:20:13;4.65;;;2.17;;
4428;SDS011;2227;47.810;8.810;2022-07-06T05:22:40;5.32;;;2.30;;
4428;SDS011;2227;47.810;8.810;2022-07-06T05:25:11;5.30;;;2.50;;
4428;SDS011;2227;47.810;8.810;2022-07-06T05:27:38;8.05;;;2.47;;
4428;SDS011;2227;47.810;8.810;2022-07-06T05:30:05;3.20;;;1.90;;
4428;SDS011;2227;47.810;8.810;2022-07-06T05:32:32;5.82;;;2.30;;
4428;SDS011;2227;47.810;8.810;2022-07-06T05:34:59;4.32;;;2.20;;
4428;SDS011;2227;47.810;8.810;2022-07-06T05:37:46;2.72;;;1.85;;
4428;SDS011;2227;47.810;8.810;2022-07-06T05:40:13;3.58;;;1.90;;
4428;SDS011;2227;47.810;8.810;2022-07-06T05:45:10;3.33;;;1.88;;
4428;SDS011;2227;47.810;8.810;2022-07-06T05:47:37;3.50;;;1.95;;
4428;SDS011;2227;47.810;8.810;2022-07-06T05:50:22;4.63;;;1.92;;
4428;SDS011;2227;47.810;8.810;2022-07-06T05:52:56;3.70;;;2.10;;
4428;SDS011;2227;47.810;8.810;2022-07-06T05:55:25;2.75;;;1.70;;
4428;SDS011;2227;47.810;8.810;2022-07-06T05:57:53;3.95;;;2.05;;
4428;SDS011;2227;47.810;8.810;2022-07-06T06:00:20;6.05;;;2.00;;
4428;SDS011;2227;47.810;8.810;2022-07-06T06:02:48;3.50;;;1.88;;
4428;SDS011;2227;47.810;8.810;2022-07-06T06:05:15;3.28;;;1.90;;
4428;SDS011;2227;47.810;8.810;2022-07-06T06:07:49;4.80;;;1.95;;
4428;SDS011;2227;47.810;8.810;2022-07-06T06:10:17;5.97;;;1.95;;
4428;SDS011;2227;47.810;8.810;2022-07-06T06:12:45;4.25;;;2.10;;
4428;SDS011;2227;47.810;8.810;2022-07-06T06:15:12;8.98;;;2.53;;
4428;SDS011;2227;47.810;8.810;2022-07-06T06:17:39;3.50;;;1.80;;
4428;SDS011;2227;47.810;8.810;2022-07-06T06:20:07;4.35;;;2.13;;
4428;SDS011;2227;47.810;8.810;2022-07-06T06:22:49;3.05;;;1.90;;
4428;SDS011;2227;47.810;8.810;2022-07-06T06:25:20;4.88;;;1.90;;
4428;SDS011;2227;47.810;8.810;2022-07-06T06:27:47;4.57;;;2.08;;
4428;SDS011;2227;47.810;8.810;2022-07-06T06:30:14;4.10;;;1.90;;
4428;SDS011;2227;47.810;8.810;2022-07-06T06:32:41;3.35;;;1.90;;
4428;SDS011;2227;47.810;8.810;2022-07-06T06:35:08;5.75;;;2.08;;
4428;SDS011;2227;47.810;8.810;2022-07-06T06:37:35;3.75;;;2.17;;
4428;SDS011;2227;47.810;8.810;2022-07-06T06:40:02;3.05;;;2.17;;
4428;SDS011;2227;47.810;8.810;2022-07-06T06:42:30;5.50;;;2.20;;
4428;SDS011;2227;47.810;8.810;2022-07-06T06:44:57;4.88;;;1.98;;
4428;SDS011;2227;47.810;8.810;2022-07-06T06:47:24;4.07;;;2.00;;
4428;SDS011;2227;47.810;8.810;2022-07-06T06:49:50;3.40;;;1.65;;
4428;SDS011;2227;47.810;8.810;2022-07-06T06:52:17;6.03;;;1.95;;
4428;SDS011;2227;47.810;8.810;2022-07-06T06:55:04;3.40;;;2.05;;
4428;SDS011;2227;47.810;8.810;2022-07-06T06:57:31;3.40;;;2.08;;
4428;SDS011;2227;47.810;8.810;2022-07-06T06:59:58;3.70;;;2.03;;
4428;SDS011;2227;47.810;8.810;2022-07-06T07:02:24;7.50;;;2.17;;
4428;SDS011;2227;47.810;8.810;2022-07-06T07:04:51;5.13;;;1.88;;
4428;SDS011;2227;47.810;8.810;2022-07-06T07:07:18;3.88;;;1.83;;
4428;SDS011;2227;47.810;8.810;2022-07-06T07:09:45;3.70;;;1.88;;
4428;SDS011;2227;47.810;8.810;2022-07-06T07:12:12;3.50;;;1.73;;
4428;SDS011;2227;47.810;8.810;2022-07-06T07:14:41;3.55;;;2.10;;
4428;SDS011;2227;47.810;8.810;2022-07-06T07:17:07;5.30;;;2.05;;
4428;SDS011;2227;47.810;8.810;2022-07-06T07:19:34;4.63;;;2.17;;
4428;SDS011;2227;47.810;8.810;2022-07-06T07:22:01;3.50;;;1.85;;
4428;SDS011;2227;47.810;8.810;2022-07-06T07:24:28;4.32;;;1.75;;
4428;SDS011;2227;47.810;8.810;2022-07-06T07:26:55;3.92;;;1.80;;
4428;SDS011;2227;47.810;8.810;2022-07-06T07:29:22;2.80;;;1.95;;
4428;SDS011;2227;47.810;8.810;2022-07-06T07:31:49;5.50;;;1.95;;
4428;SDS011;2227;47.810;8.810;2022-07-06T07:34:16;3.58;;;1.73;;
4428;SDS011;2227;47.810;8.810;2022-07-06T07:36:43;3.15;;;1.80;;
4428;SDS011;2227;47.810;8.810;2022-07-06T07:39:10;3.78;;;1.73;;
4428;SDS011;2227;47.810;8.810;2022-07-06T07:41:36;2.85;;;1.90;;
4428;SDS011;2227;47.810;8.810;2022-07-06T07:44:03;5.00;;;1.85;;
4428;SDS011;2227;47.810;8.810;2022-07-06T07:46:30;5.43;;;2.30;;
4428;SDS011;2227;47.810;8.810;2022-07-06T07:48:57;7.07;;;4.95;;
4428;SDS011;2227;47.810;8.810;2022-07-06T07:51:24;5.25;;;2.30;;
4428;SDS011;2227;47.810;8.810;2022-07-06T07:53:51;2.95;;;1.80;;
4428;SDS011;2227;47.810;8.810;2022-07-06T07:56:18;4.25;;;2.15;;
4428;SDS011;2227;47.810;8.810;2022-07-06T07:58:44;3.55;;;1.70;;
4428;SDS011;2227;47.810;8.810;2022-07-06T08:01:11;4.05;;;2.33;;
4428;SDS011;2227;47.810;8.810;2022-07-06T08:03:38;4.55;;;2.17;;
4428;SDS011;2227;47.810;8.810;2022-07-06T08:06:05;3.38;;;2.40;;
4428;SDS011;2227;47.810;8.810;2022-07-06T08:08:31;3.97;;;2.15;;
4428;SDS011;2227;47.810;8.810;2022-07-06T08:10:58;3.70;;;2.00;;
4428;SDS011;2227;47.810;8.810;2022-07-06T08:13:43;4.35;;;2.20;;
4428;SDS011;2227;47.810;8.810;2022-07-06T08:16:10;3.60;;;2.00;;
4428;SDS011;2227;47.810;8.810;2022-07-06T08:18:37;3.58;;;1.90;;
4428;SDS011;2227;47.810;8.810;2022-07-06T08:21:04;3.03;;;1.90;;
4428;SDS011;2227;47.810;8.810;2022-07-06T08:23:50;3.85;;;1.95;;
4428;SDS011;2227;47.810;8.810;2022-07-06T08:26:17;3.30;;;1.92;;
4428;SDS011;2227;47.810;8.810;2022-07-06T08:28:44;3.80;;;1.80;;
4428;SDS011;2227;47.810;8.810;2022-07-06T08:31:11;4.13;;;2.35;;
4428;SDS011;2227;47.810;8.810;2022-07-06T08:33:58;4.40;;;1.92;;
4428;SDS011;2227;47.810;8.810;2022-07-06T08:36:25;2.92;;;1.70;;
4428;SDS011;2227;47.810;8.810;2022-07-06T08:38:52;3.63;;;2.05;;
4428;SDS011;2227;47.810;8.810;2022-07-06T08:41:21;2.88;;;1.85;;
4428;SDS011;2227;47.810;8.810;2022-07-06T08:43:51;5.20;;;2.00;;
4428;SDS011;2227;47.810;8.810;2022-07-06T08:46:19;3.15;;;1.70;;
4428;SDS011;2227;47.810;8.810;2022-07-06T08:48:47;4.13;;;2.40;;
4428;SDS011;2227;47.810;8.810;2022-07-06T08:51:14;3.53;;;2.03;;
4428;SDS011;2227;47.810;8.810;2022-07-06T08:53:41;2.95;;;1.60;;
4428;SDS011;2227;47.810;8.810;2022-07-06T08:56:10;3.70;;;1.70;;
4428;SDS011;2227;47.810;8.810;2022-07-06T08:58:37;3.72;;;1.65;;
4428;SDS011;2227;47.810;8.810;2022-07-06T09:01:09;3.45;;;1.73;;
4428;SDS011;2227;47.810;8.810;2022-07-06T09:03:38;2.90;;;1.60;;
4428;SDS011;2227;47.810;8.810;2022-07-06T09:06:11;3.85;;;2.00;;
4428;SDS011;2227;47.810;8.810;2022-07-06T09:08:42;2.97;;;1.70;;
4428;SDS011;2227;47.810;8.810;2022-07-06T09:11:10;3.50;;;1.70;;
4428;SDS011;2227;47.810;8.810;2022-07-06T09:13:36;2.65;;;1.70;;
4428;SDS011;2227;47.810;8.810;2022-07-06T09:16:10;3.45;;;1.90;;
4428;SDS011;2227;47.810;8.810;2022-07-06T09:18:58;2.28;;;1.50;;
4428;SDS011;2227;47.810;8.810;2022-07-06T09:21:26;3.30;;;1.65;;
4428;SDS011;2227;47.810;8.810;2022-07-06T09:23:56;4.05;;;2.05;;
4428;SDS011;2227;47.810;8.810;2022-07-06T09:26:25;3.97;;;1.85;;
4428;SDS011;2227;47.810;8.810;2022-07-06T09:28:54;2.58;;;1.88;;
4428;SDS011;2227;47.810;8.810;2022-07-06T09:31:22;2.58;;;1.55;;
4428;SDS011;2227;47.810;8.810;2022-07-06T09:34:00;3.03;;;2.00;;
4428;SDS011;2227;47.810;8.810;2022-07-06T09:41:51;3.10;;;1.60;;
4428;SDS011;2227;47.810;8.810;2022-07-06T09:46:48;3.92;;;1.73;;
4428;SDS011;2227;47.810;8.810;2022-07-06T09:49:19;3.58;;;1.92;;
4428;SDS011;2227;47.810;8.810;2022-07-06T09:51:47;2.88;;;1.60;;
4428;SDS011;2227;47.810;8.810;2022-07-06T09:54:16;4.38;;;1.90;;
4428;SDS011;2227;47.810;8.810;2022-07-06T09:56:45;5.07;;;1.90;;
4428;SDS011;2227;47.810;8.810;2022-07-06T09:59:17;3.83;;;2.00;;
4428;SDS011;2227;47.810;8.810;2022-07-06T10:01:48;4.43;;;1.88;;
4428;SDS011;2227;47.810;8.810;2022-07-06T10:04:18;4.30;;;1.80;;
4428;SDS011;2227;47.810;8.810;2022-07-06T10:06:46;2.42;;;1.75;;
4428;SDS011;2227;47.810;8.810;2022-07-06T10:09:14;3.30;;;1.90;;
4428;SDS011;2227;47.810;8.810;2022-07-06T10:11:52;3.00;;;1.80;;
4428;SDS011;2227;47.810;8.810;2022-07-06T10:14:21;2.80;;;1.60;;
4428;SDS011;2227;47.810;8.810;2022-07-06T10:16:51;2.55;;;1.67;;
4428;SDS011;2227;47.810;8.810;2022-07-06T10:19:19;3.35;;;1.70;;
4428;SDS011;2227;47.810;8.810;2022-07-06T10:21:47;3.33;;;1.50;;
4428;SDS011;2227;47.810;8.810;2022-07-06T10:24:15;3.25;;;1.65;;
4428;SDS011;2227;47.810;8.810;2022-07-06T10:26:44;2.47;;;1.58;;
4428;SDS011;2227;47.810;8.810;2022-07-06T10:29:12;4.93;;;2.15;;
4428;SDS011;2227;47.810;8.810;2022-07-06T10:31:40;3.47;;;1.80;;
4428;SDS011;2227;47.810;8.810;2022-07-06T10:34:12;3.05;;;1.67;;
4428;SDS011;2227;47.810;8.810;2022-07-06T10:36:41;2.40;;;1.60;;
4428;SDS011;2227;47.810;8.810;2022-07-06T10:39:09;3.67;;;1.80;;
4428;SDS011;2227;47.810;8.810;2022-07-06T10:41:56;2.70;;;1.60;;
4428;SDS011;2227;47.810;8.810;2022-07-06T10:44:24;5.28;;;1.77;;
4428;SDS011;2227;47.810;8.810;2022-07-06T10:46:53;5.18;;;1.75;;
4428;SDS011;2227;47.810;8.810;2022-07-06T10:49:21;3.03;;;1.45;;
4428;SDS011;2227;47.810;8.810;2022-07-06T10:52:09;5.18;;;1.63;;
4428;SDS011;2227;47.810;8.810;2022-07-06T10:54:39;4.25;;;1.70;;
4428;SDS011;2227;47.810;8.810;2022-07-06T10:57:10;3.20;;;1.77;;
4428;SDS011;2227;47.810;8.810;2022-07-06T10:59:41;3.58;;;1.48;;
4428;SDS011;2227;47.810;8.810;2022-07-06T11:02:30;2.17;;;1.35;;
4428;SDS011;2227;47.810;8.810;2022-07-06T11:05:10;3.03;;;1.42;;
4428;SDS011;2227;47.810;8.810;2022-07-06T11:07:50;3.10;;;1.30;;
4428;SDS011;2227;47.810;8.810;2022-07-06T11:10:17;2.47;;;1.70;;
4428;SDS011;2227;47.810;8.810;2022-07-06T11:12:44;5.28;;;1.67;;
4428;SDS011;2227;47.810;8.810;2022-07-06T11:15:11;2.40;;;1.55;;
4428;SDS011;2227;47.810;8.810;2022-07-06T11:17:38;2.33;;;1.55;;
4428;SDS011;2227;47.810;8.810;2022-07-06T11:20:09;3.38;;;1.50;;
4428;SDS011;2227;47.810;8.810;2022-07-06T11:22:37;3.28;;;1.73;;
4428;SDS011;2227;47.810;8.810;2022-07-06T11:25:05;1.92;;;1.20;;
4428;SDS011;2227;47.810;8.810;2022-07-06T11:27:35;4.30;;;1.52;;
4428;SDS011;2227;47.810;8.810;2022-07-06T11:30:03;2.85;;;1.60;;
4428;SDS011;2227;47.810;8.810;2022-07-06T11:32:33;3.13;;;1.50;;
4428;SDS011;2227;47.810;8.810;2022-07-06T11:35:02;3.67;;;2.08;;
4428;SDS011;2227;47.810;8.810;2022-07-06T11:37:29;7.90;;;2.00;;
4428;SDS011;2227;47.810;8.810;2022-07-06T11:39:56;1.33;;;1.20;;
4428;SDS011;2227;47.810;8.810;2022-07-06T11:42:22;1.98;;;1.30;;
4428;SDS011;2227;47.810;8.810;2022-07-06T11:44:49;2.30;;;1.35;;
4428;SDS011;2227;47.810;8.810;2022-07-06T11:47:16;2.28;;;1.55;;
4428;SDS011;2227;47.810;8.810;2022-07-06T11:49:50;2.88;;;1.30;;
4428;SDS011;2227;47.810;8.810;2022-07-06T11:52:18;3.97;;;1.60;;
4428;SDS011;2227;47.810;8.810;2022-07-06T11:54:44;2.42;;;1.40;;
4428;SDS011;2227;47.810;8.810;2022-07-06T11:57:11;3.65;;;1.60;;
4428;SDS011;2227;47.810;8.810;2022-07-06T11:59:39;3.10;;;1.50;;
4428;SDS011;2227;47.810;8.810;2022-07-06T12:02:08;2.97;;;1.50;;
4428;SDS011;2227;47.810;8.810;2022-07-06T12:04:40;3.30;;;1.50;;
4428;SDS011;2227;47.810;8.810;2022-07-06T12:07:12;2.28;;;1.40;;
4428;SDS011;2227;47.810;8.810;2022-07-06T12:09:41;2.25;;;1.55;;
4428;SDS011;2227;47.810;8.810;2022-07-06T12:12:10;3.03;;;1.40;;
4428;SDS011;2227;47.810;8.810;2022-07-06T12:14:38;5.13;;;2.15;;
4428;SDS011;2227;47.810;8.810;2022-07-06T12:17:12;3.45;;;1.40;;
4428;SDS011;2227;47.810;8.810;2022-07-06T12:19:41;5.20;;;1.60;;
4428;SDS011;2227;47.810;8.810;2022-07-06T12:22:09;5.03;;;1.83;;
4428;SDS011;2227;47.810;8.810;2022-07-06T12:24:37;1.90;;;1.35;;
4428;SDS011;2227;47.810;8.810;2022-07-06T12:27:19;3.67;;;1.60;;
4428;SDS011;2227;47.810;8.810;2022-07-06T12:29:47;2.95;;;1.48;;
4428;SDS011;2227;47.810;8.810;2022-07-06T12:32:18;3.25;;;1.42;;
4428;SDS011;2227;47.810;8.810;2022-07-06T12:35:01;2.03;;;1.30;;
4428;SDS011;2227;47.810;8.810;2022-07-06T12:37:32;2.53;;;1.52;;
4428;SDS011;2227;47.810;8.810;2022-07-06T12:39:59;3.78;;;1.60;;
4428;SDS011;2227;47.810;8.810;2022-07-06T12:42:27;2.55;;;1.45;;
4428;SDS011;2227;47.810;8.810;2022-07-06T12:44:54;3.92;;;1.63;;
4428;SDS011;2227;47.810;8.810;2022-07-06T12:47:22;2.63;;;1.40;;
4428;SDS011;2227;47.810;8.810;2022-07-06T12:50:04;3.00;;;1.52;;
4428;SDS011;2227;47.810;8.810;2022-07-06T12:52:33;2.83;;;1.60;;
4428;SDS011;2227;47.810;8.810;2022-07-06T12:55:01;2.08;;;1.27;;
4428;SDS011;2227;47.810;8.810;2022-07-06T13:00:11;4.65;;;1.50;;
4428;SDS011;2227;47.810;8.810;2022-07-06T13:02:38;2.13;;;1.40;;
4428;SDS011;2227;47.810;8.810;2022-07-06T13:05:26;3.83;;;1.63;;
4428;SDS011;2227;47.810;8.810;2022-07-06T13:07:54;3.25;;;1.75;;
4428;SDS011;2227;47.810;8.810;2022-07-06T13:10:22;2.72;;;1.60;;
4428;SDS011;2227;47.810;8.810;2022-07-06T13:12:50;3.33;;;1.63;;
4428;SDS011;2227;47.810;8.810;2022-07-06T13:15:17;4.15;;;1.50;;
4428;SDS011;2227;47.810;8.810;2022-07-06T13:17:44;3.97;;;1.65;;
4428;SDS011;2227;47.810;8.810;2022-07-06T13:20:12;3.15;;;1.70;;
4428;SDS011;2227;47.810;8.810;2022-07-06T13:22:40;3.47;;;1.58;;
4428;SDS011;2227;47.810;8.810;2022-07-06T13:25:07;3.95;;;1.52;;
4428;SDS011;2227;47.810;8.810;2022-07-06T13:27:34;3.38;;;1.60;;
4428;SDS011;2227;47.810;8.810;2022-07-06T13:30:01;2.95;;;1.50;;
4428;SDS011;2227;47.810;8.810;2022-07-06T13:32:29;2.88;;;1.73;;
4428;SDS011;2227;47.810;8.810;2022-07-06T13:34:56;2.92;;;1.55;;
4428;SDS011;2227;47.810;8.810;2022-07-06T13:37:23;2.28;;;1.50;;
4428;SDS011;2227;47.810;8.810;2022-07-06T13:39:49;3.05;;;1.60;;
4428;SDS011;2227;47.810;8.810;2022-07-06T13:42:16;4.45;;;1.95;;
4428;SDS011;2227;47.810;8.810;2022-07-06T13:44:43;2.78;;;1.60;;
4428;SDS011;2227;47.810;8.810;2022-07-06T13:47:10;2.50;;;1.40;;
4428;SDS011;2227;47.810;8.810;2022-07-06T13:49:37;2.63;;;1.60;;
4428;SDS011;2227;47.810;8.810;2022-07-06T13:52:04;4.28;;;1.65;;
4428;SDS011;2227;47.810;8.810;2022-07-06T13:54:32;1.98;;;1.40;;
4428;SDS011;2227;47.810;8.810;2022-07-06T13:57:02;4.88;;;1.42;;
4428;SDS011;2227;47.810;8.810;2022-07-06T13:59:31;2.13;;;1.38;;
4428;SDS011;2227;47.810;8.810;2022-07-06T14:01:58;2.03;;;1.42;;
4428;SDS011;2227;47.810;8.810;2022-07-06T14:04:25;2.92;;;1.58;;
4428;SDS011;2227;47.810;8.810;2022-07-06T14:06:52;2.50;;;1.40;;
4428;SDS011;2227;47.810;8.810;2022-07-06T14:09:19;3.53;;;1.63;;
4428;SDS011;2227;47.810;8.810;2022-07-06T14:11:46;3.80;;;1.70;;
4428;SDS011;2227;47.810;8.810;2022-07-06T14:14:13;4.00;;;1.60;;
4428;SDS011;2227;47.810;8.810;2022-07-06T14:16:40;3.25;;;1.58;;
4428;SDS011;2227;47.810;8.810;2022-07-06T14:19:07;3.00;;;1.50;;
4428;SDS011;2227;47.810;8.810;2022-07-06T14:21:35;2.35;;;1.60;;
4428;SDS011;2227;47.810;8.810;2022-07-06T14:24:02;2.42;;;1.40;;
4428;SDS011;2227;47.810;8.810;2022-07-06T14:26:29;3.22;;;1.23;;
4428;SDS011;2227;47.810;8.810;2022-07-06T14:28:56;3.45;;;1.60;;
4428;SDS011;2227;47.810;8.810;2022-07-06T14:31:23;2.25;;;1.30;;
4428;SDS011;2227;47.810;8.810;2022-07-06T14:33:50;3.47;;;1.50;;
4428;SDS011;2227;47.810;8.810;2022-07-06T14:36:17;1.60;;;1.40;;
4428;SDS011;2227;47.810;8.810;2022-07-06T14:38:44;2.45;;;1.45;;
4428;SDS011;2227;47.810;8.810;2022-07-06T14:41:12;2.92;;;1.50;;
4428;SDS011;2227;47.810;8.810;2022-07-06T14:43:39;3.70;;;1.45;;
4428;SDS011;2227;47.810;8.810;2022-07-06T14:46:06;3.95;;;1.60;;
4428;SDS011;2227;47.810;8.810;2022-07-06T14:48:33;4.65;;;1.67;;
4428;SDS011;2227;47.810;8.810;2022-07-06T14:51:00;3.88;;;1.63;;
4428;SDS011;2227;47.810;8.810;2022-07-06T14:53:27;3.63;;;1.30;;
4428;SDS011;2227;47.810;8.810;2022-07-06T14:55:55;3.42;;;1.65;;
4428;SDS011;2227;47.810;8.810;2022-07-06T14:58:22;2.85;;;1.65;;
4428;SDS011;2227;47.810;8.810;2022-07-06T15:00:50;2.55;;;1.27;;
4428;SDS011;2227;47.810;8.810;2022-07-06T15:03:24;2.80;;;1.60;;
4428;SDS011;2227;47.810;8.810;2022-07-06T15:05:52;2.33;;;1.25;;
4428;SDS011;2227;47.810;8.810;2022-07-06T15:08:19;2.67;;;1.80;;
4428;SDS011;2227;47.810;8.810;2022-07-06T15:10:48;5.45;;;1.50;;
4428;SDS011;2227;47.810;8.810;2022-07-06T15:13:15;3.33;;;1.40;;
4428;SDS011;2227;47.810;8.810;2022-07-06T15:15:43;2.20;;;1.63;;
4428;SDS011;2227;47.810;8.810;2022-07-06T15:18:23;4.72;;;1.70;;
4428;SDS011;2227;47.810;8.810;2022-07-06T15:20:50;2.53;;;1.30;;
4428;SDS011;2227;47.810;8.810;2022-07-06T15:23:17;3.22;;;1.30;;
4428;SDS011;2227;47.810;8.810;2022-07-06T15:25:45;2.30;;;1.38;;
4428;SDS011;2227;47.810;8.810;2022-07-06T15:28:20;4.45;;;1.50;;
4428;SDS011;2227;47.810;8.810;2022-07-06T15:30:47;2.90;;;1.67;;
4428;SDS011;2227;47.810;8.810;2022-07-06T15:33:14;2.92;;;1.60;;
4428;SDS011;2227;47.810;8.810;2022-07-06T15:35:41;2.53;;;1.60;;
4428;SDS011;2227;47.810;8.810;2022-07-06T15:38:08;2.75;;;1.40;;
4428;SDS011;2227;47.810;8.810;2022-07-06T15:40:35;3.00;;;1.40;;
4428;SDS011;2227;47.810;8.810;2022-07-06T15:43:06;3.53;;;1.50;;
4428;SDS011;2227;47.810;8.810;2022-07-06T15:45:34;2.20;;;1.30;;
4428;SDS011;2227;47.810;8.810;2022-07-06T15:48:03;2.42;;;1.38;;
4428;SDS011;2227;47.810;8.810;2022-07-06T15:50:30;2.28;;;1.40;;
4428;SDS011;2227;47.810;8.810;2022-07-06T15:52:57;2.90;;;1.40;;
4428;SDS011;2227;47.810;8.810;2022-07-06T15:55:24;2.33;;;1.52;;
4428;SDS011;2227;47.810;8.810;2022-07-06T15:57:52;2.03;;;1.33;;
4428;SDS011;2227;47.810;8.810;2022-07-06T16:00:19;2.00;;;1.20;;
4428;SDS011;2227;47.810;8.810;2022-07-06T16:02:46;2.95;;;1.27;;
4428;SDS011;2227;47.810;8.810;2022-07-06T16:05:13;3.50;;;1.48;;
4428;SDS011;2227;47.810;8.810;2022-07-06T16:07:41;3.40;;;1.35;;
4428;SDS011;2227;47.810;8.810;2022-07-06T16:10:29;2.78;;;1.40;;
4428;SDS011;2227;47.810;8.810;2022-07-06T16:12:56;2.83;;;1.42;;
4428;SDS011;2227;47.810;8.810;2022-07-06T16:15:23;2.30;;;1.25;;
4428;SDS011;2227;47.810;8.810;2022-07-06T16:17:50;2.05;;;1.23;;
4428;SDS011;2227;47.810;8.810;2022-07-06T16:20:17;3.72;;;1.30;;
4428;SDS011;2227;47.810;8.810;2022-07-06T16:22:45;3.60;;;1.48;;
4428;SDS011;2227;47.810;8.810;2022-07-06T16:25:14;3.40;;;1.80;;
4428;SDS011;2227;47.810;8.810;2022-07-06T16:27:43;4.20;;;1.20;;
4428;SDS011;2227;47.810;8.810;2022-07-06T16:30:10;2.63;;;1.50;;
4428;SDS011;2227;47.810;8.810;2022-07-06T16:32:46;2.72;;;1.15;;
4428;SDS011;2227;47.810;8.810;2022-07-06T16:35:13;2.88;;;1.17;;
4428;SDS011;2227;47.810;8.810;2022-07-06T16:37:40;3.70;;;1.50;;
4428;SDS011;2227;47.810;8.810;2022-07-06T16:40:07;1.77;;;1.10;;
4428;SDS011;2227;47.810;8.810;2022-07-06T16:42:35;1.90;;;1.10;;
4428;SDS011;2227;47.810;8.810;2022-07-06T16:45:02;3.45;;;1.42;;
4428;SDS011;2227;47.810;8.810;2022-07-06T16:47:29;2.10;;;1.17;;
4428;SDS011;2227;47.810;8.810;2022-07-06T16:49:56;4.28;;;1.30;;
4428;SDS011;2227;47.810;8.810;2022-07-06T16:52:26;3.75;;;1.38;;
4428;SDS011;2227;47.810;8.810;2022-07-06T16:54:55;2.55;;;1.35;;
4428;SDS011;2227;47.810;8.810;2022-07-06T16:57:22;1.95;;;1.30;;
4428;SDS011;2227;47.810;8.810;2022-07-06T16:59:49;2.90;;;1.38;;
4428;SDS011;2227;47.810;8.810;2022-07-06T17:02:16;2.47;;;1.52;;
4428;SDS011;2227;47.810;8.810;2022-07-06T17:04:43;2.03;;;1.10;;
4428;SDS011;2227;47.810;8.810;2022-07-06T17:07:11;2.72;;;1.52;;
4428;SDS011;2227;47.810;8.810;2022-07-06T17:09:38;2.53;;;1.30;;
4428;SDS011;2227;47.810;8.810;2022-07-06T17:12:06;3.28;;;1.10;;
4428;SDS011;2227;47.810;8.810;2022-07-06T17:14:33;4.00;;;1.25;;
4428;SDS011;2227;47.810;8.810;2022-07-06T17:17:00;3.10;;;1.30;;
4428;SDS011;2227;47.810;8.810;2022-07-06T17:19:27;2.08;;;1.35;;
4428;SDS011;2227;47.810;8.810;2022-07-06T17:21:54;3.85;;;1.50;;
4428;SDS011;2227;47.810;8.810;2022-07-06T17:24:30;2.72;;;1.35;;
4428;SDS011;2227;47.810;8.810;2022-07-06T17:26:57;1.98;;;1.15;;
4428;SDS011;2227;47.810;8.810;2022-07-06T17:29:25;2.75;;;1.20;;
4428;SDS011;2227;47.810;8.810;2022-07-06T17:31:53;2.42;;;1.30;;
4428;SDS011;2227;47.810;8.810;2022-07-06T17:34:20;2.03;;;1.33;;
4428;SDS011;2227;47.810;8.810;2022-07-06T17:36:47;4.43;;;1.45;;
4428;SDS011;2227;47.810;8.810;2022-07-06T17:39:14;1.95;;;1.38;;
4428;SDS011;2227;47.810;8.810;2022-07-06T17:41:41;2.42;;;1.40;;
4428;SDS011;2227;47.810;8.810;2022-07-06T17:44:07;3.65;;;1.30;;
4428;SDS011;2227;47.810;8.810;2022-07-06T17:46:34;2.35;;;1.23;;
4428;SDS011;2227;47.810;8.810;2022-07-06T17:49:01;2.03;;;1.20;;
4428;SDS011;2227;47.810;8.810;2022-07-06T17:51:30;2.50;;;1.20;;
4428;SDS011;2227;47.810;8.810;2022-07-06T17:53:57;2.75;;;1.20;;
4428;SDS011;2227;47.810;8.810;2022-07-06T17:56:24;3.17;;;1.27;;
4428;SDS011;2227;47.810;8.810;2022-07-06T17:58:53;3.42;;;1.60;;
4428;SDS011;2227;47.810;8.810;2022-07-06T18:01:20;1.95;;;1.25;;
4428;SDS011;2227;47.810;8.810;2022-07-06T18:03:47;3.30;;;1.40;;
4428;SDS011;2227;47.810;8.810;2022-07-06T18:06:14;3.20;;;1.30;;
4428;SDS011;2227;47.810;8.810;2022-07-06T18:08:41;3.70;;;1.40;;
4428;SDS011;2227;47.810;8.810;2022-07-06T18:11:10;3.85;;;1.20;;
4428;SDS011;2227;47.810;8.810;2022-07-06T18:13:37;2.22;;;1.17;;
4428;SDS011;2227;47.810;8.810;2022-07-06T18:16:05;2.17;;;1.20;;
4428;SDS011;2227;47.810;8.810;2022-07-06T18:18:33;3.08;;;1.38;;
4428;SDS011;2227;47.810;8.810;2022-07-06T18:21:01;2.08;;;1.00;;
4428;SDS011;2227;47.810;8.810;2022-07-06T18:23:28;2.20;;;1.40;;
4428;SDS011;2227;47.810;8.810;2022-07-06T18:25:56;1.83;;;1.35;;
4428;SDS011;2227;47.810;8.810;2022-07-06T18:28:23;1.70;;;1.20;;
4428;SDS011;2227;47.810;8.810;2022-07-06T18:30:50;1.90;;;1.23;;
4428;SDS011;2227;47.810;8.810;2022-07-06T18:33:20;3.00;;;1.35;;
4428;SDS011;2227;47.810;8.810;2022-07-06T18:35:50;2.60;;;1.27;;
4428;SDS011;2227;47.810;8.810;2022-07-06T18:38:20;2.30;;;1.50;;
4428;SDS011;2227;47.810;8.810;2022-07-06T18:40:47;3.38;;;1.45;;
4428;SDS011;2227;47.810;8.810;2022-07-06T18:43:15;3.17;;;1.42;;
4428;SDS011;2227;47.810;8.810;2022-07-06T18:45:42;6.25;;;1.30;;
4428;SDS011;2227;47.810;8.810;2022-07-06T18:48:10;4.35;;;1.50;;
4428;SDS011;2227;47.810;8.810;2022-07-06T18:50:41;3.15;;;1.40;;
4428;SDS011;2227;47.810;8.810;2022-07-06T18:53:08;2.22;;;1.30;;
4428;SDS011;2227;47.810;8.810;2022-07-06T18:55:36;2.15;;;1.38;;
4428;SDS011;2227;47.810;8.810;2022-07-06T18:58:03;3.25;;;1.30;;
4428;SDS011;2227;47.810;8.810;2022-07-06T19:00:30;4.40;;;1.50;;
4428;SDS011;2227;47.810;8.810;2022-07-06T19:02:57;3.55;;;1.70;;
4428;SDS011;2227;47.810;8.810;2022-07-06T19:05:24;2.47;;;1.40;;
4428;SDS011;2227;47.810;8.810;2022-07-06T19:07:51;2.10;;;1.30;;
4428;SDS011;2227;47.810;8.810;2022-07-06T19:10:18;2.03;;;1.17;;
4428;SDS011;2227;47.810;8.810;2022-07-06T19:12:45;2.17;;;1.40;;
4428;SDS011;2227;47.810;8.810;2022-07-06T19:15:12;2.17;;;1.30;;
4428;SDS011;2227;47.810;8.810;2022-07-06T19:17:40;1.73;;;1.20;;
4428;SDS011;2227;47.810;8.810;2022-07-06T19:20:08;3.25;;;1.30;;
4428;SDS011;2227;47.810;8.810;2022-07-06T19:22:39;3.38;;;1.40;;